Time;durP1;ratioP1;P1;durP2;ratioP2;P2;SDS_P1;SDS_P2;PMS_P1;PMS_P2;Temp;Humidity;BMP_temperature;BMP_pressure;BME280_temperature;BME280_humidity;BME280_pressure;Samples;Min_cycle;Max_cycle;Signal;HPM_P1;HPM_P2
2022/01/29 00:01:56;;;;;;;8.35;3.05;;;;;;;-2.84;88.87;100150.46;1655378;84;21137;-72
2022/01/29 00:04:22;;;;;;;7.92;2.62;;;;;;;-2.89;88.94;100150.39;1657029;84;21522;-72
2022/01/29 00:06:49;;;;;;;10.40;2.90;;;;;;;-2.90;88.99;100151.23;1656092;84;21067;-72
2022/01/29 00:09:16;;;;;;;7.92;2.70;;;;;;;-2.90;89.03;100155.49;1653518;84;20994;-72
2022/01/29 00:11:43;;;;;;;9.13;2.80;;;;;;;-2.92;89.10;100152.48;1657613;84;20965;-72
2022/01/29 00:14:11;;;;;;;9.18;2.83;;;;;;;-2.89;89.19;100152.09;1638985;84;20981;-71
2022/01/29 00:16:40;;;;;;;9.93;3.42;;;;;;;-2.88;89.21;100151.27;1652091;83;21124;-72
2022/01/29 00:19:08;;;;;;;7.05;2.87;;;;;;;-2.85;89.23;100148.75;1653748;84;21514;-72
2022/01/29 00:21:35;;;;;;;9.35;3.02;;;;;;;-2.82;89.27;100150.92;1661649;84;21084;-72
2022/01/29 00:24:02;;;;;;;10.58;2.72;;;;;;;-2.83;89.32;100143.22;1652998;84;21067;-72
2022/01/29 00:26:28;;;;;;;13.05;3.75;;;;;;;-2.75;89.34;100148.02;1663124;84;20998;-72
2022/01/29 00:28:57;;;;;;;10.43;2.50;;;;;;;-2.73;89.38;100141.24;1660609;84;21661;-72
2022/01/29 00:31:23;;;;;;;17.73;4.30;;;;;;;-2.68;89.43;100137.05;1663328;84;21060;-72
2022/01/29 00:33:50;;;;;;;11.28;3.55;;;;;;;-2.65;89.43;100138.37;1658843;84;20997;-72
2022/01/29 00:36:17;;;;;;;11.57;4.30;;;;;;;-2.63;89.48;100132.86;1658299;83;20962;-72
2022/01/29 00:38:44;;;;;;;10.13;2.30;;;;;;;-2.59;89.49;100136.31;1655008;84;21057;-73
2022/01/29 00:41:10;;;;;;;8.20;2.67;;;;;;;-2.56;89.56;100132.09;1664404;84;21068;-72
2022/01/29 00:43:37;;;;;;;10.20;3.50;;;;;;;-2.52;89.61;100131.30;1662261;84;21085;-72
2022/01/29 00:46:04;;;;;;;10.68;3.40;;;;;;;-2.47;89.63;100130.91;1660121;84;21150;-72
2022/01/29 00:48:30;;;;;;;8.23;2.40;;;;;;;-2.44;89.63;100125.41;1655737;84;21609;-72
2022/01/29 00:51:00;;;;;;;10.10;2.72;;;;;;;-2.40;89.67;100128.45;1663051;84;21035;-72
2022/01/29 00:53:27;;;;;;;7.90;3.27;;;;;;;-2.37;89.67;100123.37;1662925;84;21787;-72
2022/01/29 00:55:54;;;;;;;10.60;2.75;;;;;;;-2.37;89.68;100129.76;1659808;84;21107;-73
2022/01/29 00:58:20;;;;;;;9.83;3.10;;;;;;;-2.37;89.83;100127.20;1651502;84;21006;-72
2022/01/29 01:00:47;;;;;;;12.07;3.62;;;;;;;-2.36;89.92;100127.63;1662941;84;21927;-72
2022/01/29 01:03:14;;;;;;;11.57;3.30;;;;;;;-2.32;89.94;100125.13;1662401;84;21409;-72
2022/01/29 01:05:41;;;;;;;7.28;3.05;;;;;;;-2.30;89.97;100113.62;1645819;84;21496;-72
2022/01/29 01:08:08;;;;;;;6.70;3.30;;;;;;;-2.25;90.05;100101.75;1658891;84;21495;-72
2022/01/29 01:10:35;;;;;;;14.83;3.27;;;;;;;-2.23;90.09;100093.68;1661765;84;28786;-72
2022/01/29 01:13:01;;;;;;;7.45;3.20;;;;;;;-2.20;90.13;100093.70;1655940;84;21116;-72
2022/01/29 01:15:28;;;;;;;13.45;4.75;;;;;;;-2.18;90.15;100085.64;1657244;84;21013;-71
2022/01/29 01:17:55;;;;;;;15.73;4.30;;;;;;;-2.15;90.17;100083.11;1658868;84;21108;-72
2022/01/29 01:20:22;;;;;;;9.60;3.37;;;;;;;-2.12;90.23;100078.02;1662560;84;21531;-72
2022/01/29 01:22:48;;;;;;;12.95;3.20;;;;;;;-2.09;90.23;100070.37;1647659;84;20954;-72
2022/01/29 01:25:15;;;;;;;11.50;3.37;;;;;;;-2.05;90.29;100065.70;1654479;84;20994;-72
2022/01/29 01:27:42;;;;;;;10.10;3.63;;;;;;;-1.96;90.47;100058.95;1654552;84;20997;-72
2022/01/29 01:30:10;;;;;;;9.15;3.80;;;;;;;-1.96;90.47;100058.95;1652821;84;22019;-72
2022/01/29 01:32:37;;;;;;;10.23;3.75;;;;;;;-1.95;90.44;100045.33;1651952;84;21104;-72
2022/01/29 01:35:14;;;;;;;15.23;3.90;;;;;;;-1.92;90.46;100035.12;1661014;84;21024;-72
2022/01/29 01:37:44;;;;;;;11.28;4.33;;;;;;;-1.89;90.49;100040.27;1656256;84;21026;-71
2022/01/29 01:40:08;;;;;;;14.38;4.03;;;;;;;-1.87;90.55;100034.73;1654205;84;21100;-71
2022/01/29 01:42:34;;;;;;;9.68;3.65;;;;;;;-1.86;90.52;100027.48;1668243;83;21056;-71
2022/01/29 01:45:01;;;;;;;10.88;4.28;;;;;;;-1.84;90.58;100024.09;1656058;84;21136;-71
2022/01/29 01:47:27;;;;;;;16.63;4.97;;;;;;;-1.80;90.60;100010.89;1651856;83;21464;-71
2022/01/29 01:49:54;;;;;;;13.53;3.85;;;;;;;-1.80;90.56;100010.89;1662111;84;21081;-71
2022/01/29 01:52:21;;;;;;;21.25;3.42;;;;;;;-1.78;90.59;99998.97;1661528;84;21017;-71
2022/01/29 01:54:58;;;;;;;6.40;2.60;;;;;;;-1.77;90.65;99991.70;1651705;84;21511;-72
2022/01/29 01:57:26;;;;;;;6.92;3.20;;;;;;;-1.77;90.67;99985.31;1665971;84;21223;-72
2022/01/29 01:59:53;;;;;;;5.62;2.52;;;;;;;-1.75;90.75;99986.19;1660842;84;20973;-72
2022/01/29 02:02:21;;;;;;;10.57;3.70;;;;;;;-1.73;90.78;99969.14;1659239;83;21041;-72
2022/01/29 02:04:48;;;;;;;8.73;2.90;;;;;;;-1.71;90.81;99962.34;1661618;84;21143;-72
2022/01/29 02:07:15;;;;;;;11.65;4.00;;;;;;;-1.69;90.82;99955.50;1658227;84;21068;-72
2022/01/29 02:09:42;;;;;;;9.15;3.52;;;;;;;-1.66;90.95;99955.52;1652894;84;21128;-72
2022/01/29 02:12:10;;;;;;;10.53;3.87;;;;;;;-1.63;90.96;99955.53;1662475;84;21626;-72
2022/01/29 02:14:38;;;;;;;11.12;3.00;;;;;;;-1.59;90.98;99941.06;1658379;84;21080;-72
2022/01/29 02:17:10;;;;;;;9.03;3.45;;;;;;;-1.55;91.03;99944.48;1660828;84;21103;-72
2022/01/29 02:19:37;;;;;;;13.88;3.25;;;;;;;-1.49;91.10;99952.20;1664259;84;21105;-72
2022/01/29 02:22:04;;;;;;;12.15;3.27;;;;;;;-1.45;91.11;99956.50;1665544;83;21820;-71
2022/01/29 02:24:31;;;;;;;13.25;2.92;;;;;;;-1.41;91.16;99955.66;1665129;83;21041;-71
2022/01/29 02:26:58;;;;;;;8.78;2.33;;;;;;;-1.38;91.22;99955.66;1660117;84;21115;-72
2022/01/29 02:29:24;;;;;;;6.60;2.77;;;;;;;-1.35;91.22;99948.84;1652817;83;21053;-72
2022/01/29 02:31:57;;;;;;;6.12;2.45;;;;;;;-1.34;91.26;99949.73;1662950;84;21017;-71
2022/01/29 02:34:25;;;;;;;4.67;2.45;;;;;;;-1.30;91.28;99943.75;1662789;84;21176;-71
2022/01/29 02:36:53;;;;;;;7.92;2.70;;;;;;;-1.25;91.28;99944.63;1663199;84;21041;-72
2022/01/29 02:39:21;;;;;;;7.33;2.83;;;;;;;-1.22;91.28;99947.20;1642858;84;20915;-72
2022/01/29 02:41:49;;;;;;;6.47;2.42;;;;;;;-1.18;91.31;99940.37;1659279;84;20985;-71
2022/01/29 02:44:21;;;;;;;6.45;1.82;;;;;;;-1.17;91.28;99919.90;1652131;85;21518;-72
2022/01/29 02:49:19;;;;;;;8.10;2.60;;;;;;;-1.16;91.32;99916.47;1657225;84;21069;-71
2022/01/29 02:51:49;;;;;;;7.95;2.47;;;;;;;-1.11;91.37;99928.47;1655700;83;21143;-71
2022/01/29 02:54:18;;;;;;;5.78;2.30;;;;;;;-1.11;91.41;99926.75;1657662;84;20970;-71
2022/01/29 02:56:45;;;;;;;6.03;2.30;;;;;;;-1.06;91.43;99922.94;1654100;83;21808;-71
2022/01/29 02:59:12;;;;;;;8.10;1.95;;;;;;;-1.04;91.37;99926.33;1662842;84;21294;-71
2022/01/29 03:01:39;;;;;;;6.28;2.15;;;;;;;-1.02;91.43;99925.92;1661014;84;21078;-71
2022/01/29 03:04:06;;;;;;;8.00;2.22;;;;;;;-0.99;91.48;99929.77;1654741;84;20997;-71
2022/01/29 03:06:33;;;;;;;11.15;2.35;;;;;;;-0.97;91.59;99930.20;1650080;84;21081;-71
2022/01/29 03:09:01;;;;;;;4.25;2.20;;;;;;;-0.93;91.71;99918.25;1656713;84;21121;-71
2022/01/29 03:11:27;;;;;;;;;;;;;;;-0.88;91.88;99908.87;1665123;84;21066;-71
2022/01/29 03:13:54;;;;;;;14.30;5.83;;;;;;;-0.84;91.93;99897.78;1656338;84;20342;-71
2022/01/29 03:16:20;;;;;;;19.80;7.85;;;;;;;-0.79;92.02;99895.20;1663294;84;21532;-71
2022/01/29 03:18:47;;;;;;;19.30;8.23;;;;;;;-0.76;92.10;99893.49;1658026;84;21515;-71
2022/01/29 03:21:14;;;;;;;18.67;7.90;;;;;;;-0.71;92.17;99894.36;1652211;84;21100;-71
2022/01/29 03:23:41;;;;;;;18.35;6.42;;;;;;;-0.69;92.21;99883.69;1656474;84;24511;-71
2022/01/29 03:26:08;;;;;;;21.52;6.55;;;;;;;-0.66;92.23;99875.58;1655220;84;21032;-71
2022/01/29 03:28:34;;;;;;;14.40;5.25;;;;;;;-0.64;92.37;99876.41;1662612;84;20961;-71
2022/01/29 03:31:01;;;;;;;23.42;7.05;;;;;;;-0.60;92.41;99870.01;1663159;84;21546;-71
2022/01/29 03:33:29;;;;;;;19.20;7.65;;;;;;;-0.56;92.48;99870.45;1662496;84;21113;-71
2022/01/29 03:35:55;;;;;;;19.65;7.28;;;;;;;-0.52;92.53;99866.17;1662797;84;21621;-71
2022/01/29 03:38:23;;;;;;;18.27;8.20;;;;;;;-0.51;92.66;99857.61;1657909;85;20978;-71
2022/01/29 03:40:51;;;;;;;24.72;8.90;;;;;;;-0.50;92.70;99856.78;1660586;85;21006;-71
2022/01/29 03:43:27;;;;;;;22.27;7.87;;;;;;;-0.48;92.77;99845.66;1659677;85;21121;-71
2022/01/29 03:45:46;;;;;;;25.25;8.60;;;;;;;-0.45;92.79;99842.21;1652321;85;21002;-71
2022/01/29 03:48:13;;;;;;;24.52;8.28;;;;;;;-0.43;92.79;99848.20;1655699;85;21106;-71
2022/01/29 03:50:39;;;;;;;18.60;7.25;;;;;;;-0.42;92.86;99842.24;1647809;85;21142;-71
2022/01/29 03:53:06;;;;;;;24.72;9.23;;;;;;;-0.40;92.86;99831.95;1655184;85;21543;-71
2022/01/29 03:55:33;;;;;;;28.17;9.38;;;;;;;-0.40;92.88;99834.09;1650023;84;21129;-71
2022/01/29 03:57:59;;;;;;;23.32;9.05;;;;;;;-0.39;92.96;99828.52;1645932;84;21143;-71
2022/01/29 04:00:26;;;;;;;25.80;9.65;;;;;;;-0.38;93.03;99823.41;1656607;85;21066;-72
2022/01/29 04:02:52;;;;;;;23.93;8.97;;;;;;;-0.36;93.04;99818.29;1651583;85;20993;-71
2022/01/29 04:05:19;;;;;;;30.60;9.70;;;;;;;-0.36;93.10;99810.16;1659939;84;21021;-71
2022/01/29 04:07:46;;;;;;;30.30;10.53;;;;;;;-0.36;93.11;99797.33;1657716;85;21155;-71
2022/01/29 04:10:13;;;;;;;20.10;9.98;;;;;;;-0.36;93.14;99793.48;1658727;83;21116;-71
2022/01/29 04:12:45;;;;;;;24.97;9.87;;;;;;;-0.34;93.21;99776.34;1656251;83;21115;-71
2022/01/29 04:15:09;;;;;;;20.43;9.70;;;;;;;-0.33;93.25;99771.66;1641508;85;21121;-71
2022/01/29 04:17:36;;;;;;;24.00;9.60;;;;;;;-0.33;93.21;99766.53;1650765;85;20974;-71
2022/01/29 04:20:05;;;;;;;34.15;10.25;;;;;;;-0.34;93.26;99748.13;1657642;85;21045;-71
2022/01/29 04:22:31;;;;;;;25.90;9.08;;;;;;;-0.35;93.29;99759.26;1655713;85;20914;-71
2022/01/29 04:24:58;;;;;;;21.97;9.43;;;;;;;-0.33;93.40;99747.29;1653347;85;21072;-71
2022/01/29 04:27:34;;;;;;;33.47;9.77;;;;;;;-0.33;93.43;99731.05;1658468;85;21065;-71
2022/01/29 04:29:56;;;;;;;23.40;8.93;;;;;;;-0.36;93.43;99726.78;1655706;83;21267;-71
2022/01/29 04:32:33;;;;;;;27.02;9.88;;;;;;;-0.35;93.45;99725.91;1659670;85;21013;-71
2022/01/29 04:34:50;;;;;;;27.42;9.23;;;;;;;-0.36;93.49;99724.21;1646234;85;20997;-71
2022/01/29 04:37:17;;;;;;;22.90;9.43;;;;;;;-0.34;93.45;99722.47;1661303;84;21513;-70
2022/01/29 04:39:43;;;;;;;26.37;9.27;;;;;;;-0.35;93.48;99715.64;1665887;83;21036;-70
2022/01/29 04:42:10;;;;;;;25.95;9.18;;;;;;;-0.36;93.49;99716.52;1649152;84;20930;-71
2022/01/29 04:44:37;;;;;;;29.80;8.05;;;;;;;-0.36;93.57;99726.78;1660823;84;21009;-70
2022/01/29 04:47:03;;;;;;;22.02;8.70;;;;;;;-0.38;93.56;99718.22;1637320;84;21618;-71
2022/01/29 04:49:30;;;;;;;26.85;8.18;;;;;;;-0.43;93.59;99721.23;1662354;84;21652;-71
2022/01/29 04:51:56;;;;;;;27.65;8.68;;;;;;;-0.46;93.61;99709.69;1662079;84;21060;-71
2022/01/29 04:54:24;;;;;;;31.10;10.40;;;;;;;-0.46;93.76;99704.56;1663017;84;21107;-71
2022/01/29 04:56:50;;;;;;;32.05;8.83;;;;;;;-0.46;93.81;99699.43;1662385;84;21014;-71
2022/01/29 04:59:17;;;;;;;24.40;7.87;;;;;;;-0.45;93.82;99698.56;1665152;84;21173;-71
2022/01/29 05:01:43;;;;;;;30.10;9.35;;;;;;;-0.49;93.83;99676.36;1658608;84;21119;-71
2022/01/29 05:04:10;;;;;;;32.13;8.40;;;;;;;-0.51;93.87;99666.09;1661128;84;21619;-71
2022/01/29 05:06:37;;;;;;;27.75;8.83;;;;;;;-0.55;93.80;99669.53;1664631;84;21025;-71
2022/01/29 05:09:07;;;;;;;30.82;8.95;;;;;;;-0.55;93.91;99675.10;1655759;84;20989;-71
2022/01/29 05:11:32;;;;;;;18.37;6.58;;;;;;;-0.57;93.89;99665.27;1650623;84;20939;-71
2022/01/29 05:13:59;;;;;;;25.52;8.00;;;;;;;-0.59;93.97;99664.41;1656177;84;21601;-71
2022/01/29 05:26:48;;;;;;;37.23;8.43;;;;;;;-0.62;93.99;99664.42;1664110;84;21589;-71
2022/01/29 05:27:10;;;;;;;24.05;7.65;;;;;;;-0.63;94.29;99640.94;1662196;84;21141;-71
2022/01/29 05:29:37;;;;;;;29.50;7.55;;;;;;;-0.62;94.48;99638.78;1659897;84;21984;-71
2022/01/29 05:32:08;;;;;;;26.90;6.87;;;;;;;-0.59;94.50;99633.64;1665877;84;21009;-71
2022/01/29 05:34:35;;;;;;;28.17;7.10;;;;;;;-0.57;94.53;99625.52;1662145;84;21108;-71
2022/01/29 05:37:03;;;;;;;24.98;6.25;;;;;;;-0.56;94.52;99609.27;1655441;84;20973;-71
2022/01/29 05:39:31;;;;;;;23.70;7.08;;;;;;;-0.54;94.53;99599.42;1651546;85;22003;-71
2022/01/29 05:41:59;;;;;;;21.35;6.70;;;;;;;-0.51;94.53;99589.58;1649542;85;21105;-71
2022/01/29 05:44:26;;;;;;;23.77;7.10;;;;;;;-0.50;94.49;99587.45;1649318;85;21148;-71
2022/01/29 05:46:53;;;;;;;;;;;;;;;-0.48;94.53;99583.16;1646817;85;21014;-69
2022/01/29 05:49:20;;;;;;;31.00;8.40;;;;;;;-0.47;94.50;99580.59;1648630;85;20309;-70
2022/01/29 05:51:47;;;;;;;25.88;8.15;;;;;;;-0.45;94.58;99570.31;1649611;85;21381;-69
2022/01/29 05:54:13;;;;;;;27.05;7.58;;;;;;;-0.44;94.60;99566.91;1651588;85;21080;-69
2022/01/29 05:56:40;;;;;;;30.92;9.33;;;;;;;-0.42;94.60;99575.45;1653951;85;21156;-70
2022/01/29 05:59:07;;;;;;;30.63;9.07;;;;;;;-0.41;94.58;99577.14;1651911;85;21084;-70
2022/01/29 06:01:33;;;;;;;33.03;8.93;;;;;;;-0.38;94.68;99575.84;1652730;85;21033;-70
2022/01/29 06:04:00;;;;;;;24.80;9.28;;;;;;;-0.36;94.71;99575.41;1654799;85;21260;-70
2022/01/29 06:06:27;;;;;;;22.60;8.53;;;;;;;-0.34;94.70;99581.37;1657352;85;21092;-70
2022/01/29 06:08:53;;;;;;;22.52;7.42;;;;;;;-0.33;94.63;99570.27;1653658;83;21024;-70
2022/01/29 06:11:21;;;;;;;24.72;6.30;;;;;;;-0.34;94.60;99552.30;1656989;85;21012;-70
2022/01/29 06:13:48;;;;;;;25.17;6.62;;;;;;;-0.33;94.60;99546.33;1659624;85;21823;-69
2022/01/29 06:16:15;;;;;;;;;;;;;;;-0.33;94.60;99547.17;1653827;85;21426;-70
2022/01/29 06:18:41;;;;;;;29.63;7.17;;;;;;;-0.31;94.65;99542.89;1653626;85;20811;-70
2022/01/29 06:21:09;;;;;;;29.60;8.35;;;;;;;-0.31;94.63;99535.20;1652900;85;21590;-70
2022/01/29 06:23:37;;;;;;;19.55;5.72;;;;;;;-0.32;94.59;99525.77;1657178;85;21531;-69
2022/01/29 06:26:09;;;;;;;26.25;8.03;;;;;;;-0.31;94.68;99527.50;1653103;85;21045;-70
2022/01/29 06:28:36;;;;;;;43.73;10.48;;;;;;;-0.31;94.67;99524.94;1657701;85;21903;-71
2022/01/29 06:31:06;;;;;;;28.85;10.13;;;;;;;-0.31;94.67;99517.23;1652741;85;21036;-69
2022/01/29 06:33:33;;;;;;;26.05;8.23;;;;;;;-0.30;94.67;99515.08;1655462;83;21013;-71
2022/01/29 06:36:00;;;;;;;25.97;8.13;;;;;;;-0.28;94.73;99504.39;1654417;85;21029;-70
2022/01/29 06:38:26;;;;;;;34.48;9.75;;;;;;;-0.26;94.73;99505.20;1652602;85;21057;-69
2022/01/29 06:40:53;;;;;;;27.33;8.70;;;;;;;-0.25;94.72;99496.66;1656521;83;21113;-70
2022/01/29 06:43:20;;;;;;;27.13;8.25;;;;;;;-0.26;94.66;99489.81;1664250;84;21189;-70
2022/01/29 06:45:47;;;;;;;34.08;8.58;;;;;;;-0.31;94.54;99485.17;1656062;85;21094;-70
2022/01/29 06:48:15;;;;;;;27.50;8.60;;;;;;;-0.33;94.56;99477.91;1645476;85;21076;-69
2022/01/29 06:50:42;;;;;;;24.75;8.18;;;;;;;-0.32;94.63;99477.03;1660730;85;21778;-70
2022/01/29 06:53:08;;;;;;;29.52;8.83;;;;;;;-0.32;94.68;99468.05;1657242;85;21871;-70
2022/01/29 06:55:35;;;;;;;27.90;8.98;;;;;;;-0.30;94.74;99463.77;1657658;83;20915;-69
2022/01/29 06:58:02;;;;;;;31.97;9.53;;;;;;;-0.28;94.79;99458.20;1658583;85;20986;-69
2022/01/29 07:00:29;;;;;;;21.50;8.30;;;;;;;-0.26;94.81;99453.89;1659113;85;21574;-69
2022/01/29 07:02:56;;;;;;;31.45;10.38;;;;;;;-0.22;94.82;99454.73;1658504;83;21669;-69
2022/01/29 07:05:23;;;;;;;26.07;8.80;;;;;;;-0.20;94.78;99454.70;1659893;85;21177;-69
2022/01/29 07:07:50;;;;;;;28.35;9.18;;;;;;;-0.16;94.85;99448.70;1656755;85;21618;-70
2022/01/29 07:10:17;;;;;;;27.90;9.10;;;;;;;-0.12;94.89;99434.97;1659520;85;21029;-70
2022/01/29 07:12:44;;;;;;;21.90;8.03;;;;;;;-0.06;95.01;99427.21;1660808;85;21566;-70
2022/01/29 07:15:12;;;;;;;27.48;7.25;;;;;;;-0.04;94.92;99413.94;1661118;83;21244;-71
2022/01/29 07:17:39;;;;;;;26.97;8.25;;;;;;;-0.03;94.90;99411.78;1660111;85;21846;-70
2022/01/29 07:20:07;;;;;;;21.40;8.68;;;;;;;-0.01;94.94;99405.77;1656293;85;21097;-70
2022/01/29 07:22:34;;;;;;;28.38;9.98;;;;;;;0.04;95.03;99400.60;1657195;85;21078;-71
2022/01/29 07:25:01;;;;;;;26.02;9.60;;;;;;;0.07;95.00;99387.73;1659179;85;21084;-71
2022/01/29 07:27:28;;;;;;;22.15;9.55;;;;;;;0.08;95.00;99381.72;1656056;85;21048;-70
2022/01/29 07:29:55;;;;;;;23.20;9.05;;;;;;;0.12;95.03;99373.14;1655980;85;21159;-70
2022/01/29 07:32:22;;;;;;;35.60;11.67;;;;;;;0.13;95.04;99364.56;1655839;84;20951;-69
2022/01/29 07:34:49;;;;;;;27.58;10.78;;;;;;;0.15;95.20;99362.84;1651314;85;20958;-71
2022/01/29 07:37:15;;;;;;;27.32;11.70;;;;;;;0.19;95.18;99364.48;1653461;85;20989;-68
2022/01/29 07:39:42;;;;;;;33.33;12.00;;;;;;;0.21;95.10;99355.06;1648350;85;21060;-69
2022/01/29 07:42:10;;;;;;;31.25;11.63;;;;;;;0.23;95.11;99349.08;1649142;85;21950;-69
2022/01/29 07:44:36;;;;;;;;;;;;;;;0.25;95.05;99347.31;1646685;85;21014;-70
2022/01/29 07:47:03;;;;;;;32.45;11.88;;;;;;;0.27;95.14;99349.00;1644836;85;20204;-70
2022/01/29 07:49:30;;;;;;;31.70;11.78;;;;;;;0.30;95.18;99340.41;1651258;85;22308;-69
2022/01/29 07:51:56;;;;;;;24.70;11.18;;;;;;;0.30;95.18;99323.72;1654733;85;20930;-69
2022/01/29 07:54:24;;;;;;;23.83;10.33;;;;;;;0.29;95.13;99322.88;1657551;85;21814;-71
2022/01/29 07:56:51;;;;;;;26.02;10.60;;;;;;;0.31;95.26;99306.16;1642700;85;21015;-70
2022/01/29 07:59:18;;;;;;;22.25;10.23;;;;;;;0.33;95.32;99309.56;1660434;85;21071;-70
2022/01/29 08:01:44;;;;;;;29.27;10.32;;;;;;;0.36;95.41;99304.38;1653821;85;21634;-70
2022/01/29 08:04:13;;;;;;;20.07;10.50;;;;;;;0.42;95.52;99294.02;1623610;85;21109;-70
2022/01/29 08:06:40;;;;;;;29.25;12.93;;;;;;;0.47;95.52;99279.41;1654517;85;21152;-69
2022/01/29 08:09:08;;;;;;;22.80;10.48;;;;;;;0.52;95.60;99272.50;1657771;85;20978;-70
2022/01/29 08:11:36;;;;;;;23.22;10.08;;;;;;;0.58;95.56;99267.27;1653645;85;20915;-70
2022/01/29 08:14:03;;;;;;;22.25;14.70;;;;;;;0.58;95.42;99259.56;1656806;85;21097;-70
2022/01/29 08:16:30;;;;;;;21.20;10.93;;;;;;;0.59;95.41;99260.44;1652817;85;21061;-70
2022/01/29 08:18:57;;;;;;;21.27;10.63;;;;;;;0.59;95.38;99261.27;1652783;85;21070;-68
2022/01/29 08:21:23;;;;;;;27.45;11.65;;;;;;;0.59;95.33;99238.16;1653534;85;21081;-69
2022/01/29 08:23:50;;;;;;;18.15;8.53;;;;;;;0.63;95.40;99244.93;1649370;85;21156;-69
2022/01/29 08:26:17;;;;;;;20.43;9.85;;;;;;;0.65;95.36;99238.06;1644580;83;20986;-69
2022/01/29 08:28:44;;;;;;;20.43;10.45;;;;;;;0.65;95.41;99226.50;1649832;83;21526;-69
2022/01/29 08:31:11;;;;;;;19.15;9.70;;;;;;;0.66;95.40;99221.76;1646211;85;21251;-69
2022/01/29 08:33:38;;;;;;;19.52;10.70;;;;;;;0.68;95.39;99228.62;1648833;85;21551;-69
2022/01/29 08:36:05;;;;;;;16.12;8.80;;;;;;;0.68;95.48;99214.05;1648987;83;21658;-69
2022/01/29 08:38:32;;;;;;;14.30;9.28;;;;;;;0.69;95.48;99212.31;1654354;85;21103;-69
2022/01/29 08:40:59;;;;;;;19.20;9.10;;;;;;;0.70;95.53;99206.29;1642157;85;21084;-69
2022/01/29 08:43:27;;;;;;;19.02;10.85;;;;;;;0.72;95.52;99203.27;1654734;85;21269;-70
2022/01/29 08:45:55;;;;;;;14.10;9.75;;;;;;;0.72;95.63;99199.41;1645850;85;21089;-69
2022/01/29 08:48:22;;;;;;;19.52;10.80;;;;;;;0.75;95.73;99192.50;1654372;85;20972;-70
2022/01/29 08:50:49;;;;;;;13.95;8.03;;;;;;;0.79;95.72;99185.61;1638491;85;20982;-70
2022/01/29 08:53:18;;;;;;;13.40;8.30;;;;;;;0.81;95.64;99176.13;1657341;84;21080;-70
2022/01/29 08:55:45;;;;;;;16.30;8.85;;;;;;;0.80;95.57;99161.59;1651401;85;21082;-69
2022/01/29 08:58:13;;;;;;;12.93;7.73;;;;;;;0.80;95.68;99159.87;1647023;85;21061;-69
2022/01/29 09:00:44;;;;;;;15.05;8.93;;;;;;;0.81;95.65;99163.28;1644611;83;21601;-69
2022/01/29 09:03:14;;;;;;;16.60;8.93;;;;;;;0.91;96.00;99153.27;1651527;85;21292;-69
2022/01/29 09:05:44;;;;;;;14.03;7.70;;;;;;;1.05;96.12;99144.88;1644831;85;21041;-69
2022/01/29 09:08:14;;;;;;;12.13;7.28;;;;;;;1.12;95.85;99132.74;1651978;85;21078;-69
2022/01/29 09:10:41;;;;;;;14.25;8.18;;;;;;;1.15;95.81;99116.41;1657082;83;21176;-69
2022/01/29 09:13:10;;;;;;;10.18;7.15;;;;;;;1.16;95.73;99118.13;1660680;85;21068;-69
2022/01/29 09:15:36;;;;;;;12.00;7.15;;;;;;;1.17;95.80;99112.09;1654981;85;21077;-68
2022/01/29 09:18:03;;;;;;;11.13;6.40;;;;;;;1.21;95.86;99108.61;1656047;83;21600;-69
2022/01/29 09:20:30;;;;;;;11.50;7.58;;;;;;;1.16;95.79;99078.27;1655366;83;21887;-70
2022/01/29 09:22:57;;;;;;;10.38;6.15;;;;;;;1.16;95.79;99078.27;1649367;85;20982;-69
2022/01/29 09:25:26;;;;;;;10.13;6.55;;;;;;;1.32;95.85;99080.95;1653877;85;21552;-70
2022/01/29 09:27:53;;;;;;;9.28;5.75;;;;;;;1.34;95.66;99092.03;1648059;85;21725;-70
2022/01/29 09:30:20;;;;;;;11.03;6.43;;;;;;;1.32;95.50;99065.52;1643444;85;21073;-72
2022/01/29 09:32:46;;;;;;;11.88;7.08;;;;;;;1.32;95.50;99065.52;1652995;85;21582;-69
2022/01/29 09:35:13;;;;;;;14.00;7.83;;;;;;;1.29;95.55;99057.88;1654195;85;21063;-69
2022/01/29 09:37:41;;;;;;;10.05;6.58;;;;;;;1.28;95.57;99058.73;1646076;85;21062;-69
2022/01/29 09:40:10;;;;;;;12.13;7.85;;;;;;;1.23;95.52;99047.68;1654090;84;21177;-70
2022/01/29 09:42:37;;;;;;;7.87;6.00;;;;;;;1.21;95.68;99043.03;1652687;83;21116;-69
2022/01/29 09:45:05;;;;;;;8.45;5.05;;;;;;;1.18;95.76;99030.23;1662268;84;21887;-70
2022/01/29 09:47:32;;;;;;;6.70;5.65;;;;;;;1.16;95.74;99028.13;1666541;82;20995;-69
2022/01/29 09:50:00;;;;;;;9.80;6.62;;;;;;;1.14;95.89;99024.73;1656957;83;21061;-69
2022/01/29 09:52:26;;;;;;;;;;;;;;;1.13;96.06;99023.05;1655396;84;21068;-69
2022/01/29 09:54:53;;;;;;;7.17;4.95;;;;;;;1.16;96.24;99018.69;1648710;83;20378;-69
2022/01/29 09:57:20;;;;;;;13.13;7.20;;;;;;;1.16;96.17;99010.13;1655010;84;21236;-69
2022/01/29 09:59:48;;;;;;;9.83;7.40;;;;;;;1.13;96.17;98995.61;1661003;83;20997;-69
2022/01/29 10:02:17;;;;;;;10.35;7.45;;;;;;;1.11;96.15;98994.34;1661474;84;21132;-69
2022/01/29 10:04:52;;;;;;;9.43;7.03;;;;;;;1.10;96.10;98986.23;1657381;84;21044;-70
2022/01/29 10:07:28;;;;;;;14.13;9.25;;;;;;;1.14;96.18;98975.88;1654186;84;21566;-70
2022/01/29 10:09:58;;;;;;;11.15;6.53;;;;;;;1.14;96.23;98967.72;1657668;84;21761;-70
2022/01/29 10:12:30;;;;;;;7.55;6.47;;;;;;;1.13;96.19;98959.61;1656647;83;20958;-70
2022/01/29 10:15:07;;;;;;;8.55;6.62;;;;;;;1.09;96.12;98945.98;1640349;85;20967;-72
2022/01/29 10:18:05;;;;;;;9.23;5.67;;;;;;;1.07;96.21;98936.16;1658561;84;21048;-70
2022/01/29 10:20:32;;;;;;;8.05;5.60;;;;;;;1.07;96.30;98936.16;1632161;86;20982;-70
2022/01/29 10:23:01;;;;;;;6.50;4.97;;;;;;;1.06;96.33;98936.18;1634353;87;21123;-69
2022/01/29 10:25:33;;;;;;;5.90;4.60;;;;;;;1.04;96.33;98928.97;1639175;85;21677;-69
2022/01/29 10:28:17;;;;;;;5.90;3.90;;;;;;;1.03;96.40;98920.38;1619859;86;32947;-69
2022/01/29 10:30:58;;;;;;;8.30;4.65;;;;;;;1.03;96.42;98923.39;1615458;87;21277;-70
2022/01/29 10:33:35;;;;;;;5.17;4.08;;;;;;;1.04;96.54;98905.38;1632230;86;21190;-69
2022/01/29 10:36:08;;;;;;;4.60;4.15;;;;;;;1.04;96.52;98898.11;1634478;86;21511;-69
2022/01/29 10:38:49;;;;;;;5.12;4.20;;;;;;;1.08;96.74;98887.70;1634886;86;21111;-74
2022/01/29 10:41:28;;;;;;;5.53;4.67;;;;;;;1.10;96.71;98875.67;1637341;86;21061;-70
2022/01/29 10:44:12;;;;;;;8.53;5.37;;;;;;;1.09;96.65;98873.99;1634158;86;21045;-76
2022/01/29 10:46:57;;;;;;;4.72;3.83;;;;;;;1.10;96.64;98860.25;1633789;86;21885;-67
2022/01/29 10:49:34;;;;;;;4.47;3.75;;;;;;;1.13;96.70;98841.34;1634248;86;21161;-68
2022/01/29 10:52:11;;;;;;;5.37;4.75;;;;;;;1.19;96.81;98833.92;1635355;86;21622;-68
2022/01/29 10:54:44;;;;;;;4.00;3.60;;;;;;;1.19;96.71;98824.92;1633676;86;21090;-68
2022/01/29 10:57:15;;;;;;;4.55;3.50;;;;;;;1.18;96.64;98810.39;1634711;87;21104;-68
2022/01/29 11:02:44;;;;;;;4.65;3.47;;;;;;;1.16;96.66;98800.12;1657744;85;22329;-69
2022/01/29 11:05:13;;;;;;;6.37;4.55;;;;;;;1.18;96.80;98798.81;1661868;85;20987;-69
2022/01/29 11:07:45;;;;;;;3.90;2.55;;;;;;;1.17;96.75;98790.67;1662781;84;21009;-68
2022/01/29 11:10:12;;;;;;;3.90;3.15;;;;;;;1.15;96.72;98779.58;1668220;84;21053;-68
2022/01/29 11:12:46;;;;;;;;;;;;;;;1.14;96.73;98765.05;1663554;84;21035;-68
2022/01/29 11:15:17;;;;;;;5.70;4.47;;;;;;;1.12;96.74;98739.36;1661430;85;21101;-68
2022/01/29 11:17:45;;;;;;;5.67;3.83;;;;;;;1.14;96.94;98744.47;1659627;85;20973;-67
2022/01/29 11:20:12;;;;;;;6.05;4.20;;;;;;;1.19;97.06;98734.92;1663090;84;21116;-67
2022/01/29 11:22:46;;;;;;;4.10;3.20;;;;;;;1.21;97.10;98720.31;1663154;84;21020;-68
2022/01/29 11:25:23;;;;;;;4.97;3.95;;;;;;;1.23;97.04;98705.67;1661758;85;21240;-66
2022/01/29 11:28:14;;;;;;;6.08;4.00;;;;;;;1.23;97.02;98700.52;1659333;84;21156;-68
2022/01/29 11:30:46;;;;;;;5.10;3.08;;;;;;;1.26;97.11;98706.45;1662288;85;21590;-66
2022/01/29 11:33:13;;;;;;;3.87;2.83;;;;;;;1.29;97.08;98688.81;1662887;85;21015;-68
2022/01/29 11:35:57;;;;;;;4.08;3.10;;;;;;;1.34;97.19;98687.81;1662220;84;21013;-67
2022/01/29 11:38:30;;;;;;;5.42;3.55;;;;;;;1.37;97.14;98676.57;1659434;84;21040;-66
2022/01/29 11:41:04;;;;;;;3.72;2.83;;;;;;;1.40;97.30;98668.80;1631373;86;21164;-67
2022/01/29 11:43:37;;;;;;;4.72;3.02;;;;;;;1.42;97.20;98659.73;1631610;86;21046;-67
2022/01/29 11:46:32;;;;;;;7.03;4.45;;;;;;;1.41;97.18;98653.75;1630699;87;21562;-68
2022/01/29 11:49:02;;;;;;;6.28;3.33;;;;;;;1.41;97.17;98640.89;1630146;87;21192;-67